createdAt,value
2018-10-17T00:01:51.413Z,12.97
2018-10-17T00:04:19.275Z,12.60
2018-10-17T00:06:48.784Z,13.33
2018-10-17T00:09:16.970Z,13.47
2018-10-17T00:11:59.273Z,13.50
2018-10-17T00:14:28.796Z,13.37
2018-10-17T00:16:59.628Z,14.10
2018-10-17T00:19:27.686Z,14.70
2018-10-17T00:21:56.600Z,14.57
2018-10-17T00:24:27.917Z,13.63
2018-10-17T00:26:56.976Z,12.93
2018-10-17T00:29:25.429Z,13.70
2018-10-17T00:34:48.117Z,13.07
2018-10-17T00:37:16.450Z,13.67
2018-10-17T00:39:46.371Z,14.17
2018-10-17T00:42:14.491Z,14.00
2018-10-17T00:44:43.007Z,15.07
2018-10-17T00:47:12.246Z,13.90
2018-10-17T00:49:40.960Z,13.93
2018-10-17T00:52:09.056Z,14.43
2018-10-17T00:54:39.013Z,12.80
2018-10-17T00:57:07.845Z,14.33
2018-10-17T00:59:35.848Z,14.07
2018-10-17T01:02:04.593Z,14.00
2018-10-17T01:04:33.754Z,14.07
2018-10-17T01:07:02.253Z,15.43
2018-10-17T01:09:30.339Z,14.07
2018-10-17T01:11:58.440Z,14.60
2018-10-17T01:14:26.945Z,13.93
2018-10-17T01:16:54.915Z,15.10
2018-10-17T01:19:22.936Z,15.30
2018-10-17T01:21:51.075Z,14.80
2018-10-17T01:24:19.895Z,14.87
2018-10-17T01:26:47.926Z,15.67
2018-10-17T01:29:16.486Z,16.10
2018-10-17T01:31:45.146Z,17.20
2018-10-17T01:34:13.130Z,15.77
2018-10-17T01:36:41.108Z,15.67
2018-10-17T01:39:16.200Z,14.90
2018-10-17T01:41:44.482Z,15.60
2018-10-17T01:44:12.245Z,16.57
2018-10-17T01:46:40.138Z,16.27
2018-10-17T01:49:08.461Z,15.63
2018-10-17T01:51:37.235Z,16.07
2018-10-17T01:54:15.712Z,15.73
2018-10-17T01:56:46.504Z,15.67
2018-10-17T01:59:15.415Z,15.90
2018-10-17T02:01:43.433Z,17.40
2018-10-17T02:04:11.136Z,17.63
2018-10-17T02:06:39.124Z,16.77
2018-10-17T02:09:08.938Z,16.27
2018-10-17T02:11:37.454Z,17.30
2018-10-17T02:14:07.324Z,16.73
2018-10-17T02:16:35.339Z,18.30
2018-10-17T02:19:04.790Z,17.47
2018-10-17T02:21:33.538Z,17.70
2018-10-17T02:24:02.799Z,16.80
2018-10-17T02:26:30.747Z,18.10
2018-10-17T02:28:58.569Z,17.00
2018-10-17T02:36:45.776Z,16.50
2018-10-17T02:39:14.278Z,18.63
2018-10-17T02:41:42.327Z,18.30
2018-10-17T02:44:20.282Z,19.47
2018-10-17T02:46:48.296Z,19.10
2018-10-17T02:49:17.174Z,19.90
2018-10-17T02:51:46.284Z,19.20
2018-10-17T02:54:14.835Z,20.20
2018-10-17T02:56:49.523Z,20.07
2018-10-17T02:59:17.571Z,19.60
2018-10-17T03:02:07.865Z,19.47
2018-10-17T03:04:38.746Z,19.10
2018-10-17T03:07:07.734Z,20.33
2018-10-17T03:09:36.437Z,20.00
2018-10-17T03:12:19.384Z,21.40
2018-10-17T03:14:48.406Z,20.27
2018-10-17T03:23:16.163Z,19.53
2018-10-17T03:25:44.021Z,18.57
2018-10-17T03:28:12.380Z,21.20
2018-10-17T03:30:49.590Z,19.17
2018-10-17T03:33:18.111Z,20.00
2018-10-17T03:35:46.997Z,18.87
2018-10-17T03:38:26.812Z,19.60
2018-10-17T03:41:00.431Z,18.90
2018-10-17T03:43:28.471Z,19.20
2018-10-17T03:46:15.337Z,19.67
2018-10-17T03:48:43.389Z,17.70
2018-10-17T03:51:24.641Z,19.00
2018-10-17T03:53:53.262Z,20.87
2018-10-17T03:56:21.833Z,21.37
2018-10-17T04:04:36.692Z,20.40
2018-10-17T04:07:05.071Z,20.53
2018-10-17T04:09:36.024Z,20.13
2018-10-17T04:14:39.077Z,20.73
2018-10-17T04:17:07.695Z,19.70
2018-10-17T04:19:36.480Z,19.73
2018-10-17T04:22:04.926Z,19.73
2018-10-17T04:24:34.575Z,18.90
2018-10-17T04:27:02.829Z,19.20
2018-10-17T04:29:31.628Z,19.97
2018-10-17T04:32:14.096Z,20.00
2018-10-17T04:34:42.269Z,20.13
2018-10-17T04:37:10.790Z,22.23
2018-10-17T04:39:40.188Z,20.90
2018-10-17T04:45:08.176Z,22.13
2018-10-17T04:47:41.495Z,21.27
2018-10-17T04:52:57.591Z,20.70
2018-10-17T04:55:26.261Z,20.97
2018-10-17T04:57:55.299Z,20.17
2018-10-17T05:00:23.755Z,20.00
2018-10-17T05:02:58.838Z,20.03
2018-10-17T05:05:28.695Z,21.40
2018-10-17T05:08:02.171Z,21.43
2018-10-17T05:10:38.232Z,21.10
2018-10-17T05:13:07.009Z,21.13
2018-10-17T05:15:42.219Z,20.30
2018-10-17T05:18:09.956Z,19.70
2018-10-17T05:20:38.608Z,22.03
2018-10-17T05:23:31.105Z,23.17
2018-10-17T05:25:59.418Z,22.50
2018-10-17T05:28:29.628Z,20.80
2018-10-17T05:31:00.082Z,21.67
2018-10-17T05:33:28.451Z,21.87
2018-10-17T05:38:46.359Z,21.27
2018-10-17T05:41:14.908Z,20.73
2018-10-17T05:43:42.907Z,20.17
2018-10-17T05:49:13.629Z,20.30
2018-10-17T05:51:41.317Z,20.73
2018-10-17T05:57:11.965Z,20.70
2018-10-17T05:59:48.551Z,21.30
2018-10-17T06:02:22.882Z,23.23
2018-10-17T06:04:51.234Z,21.17
2018-10-17T06:07:20.313Z,23.03
2018-10-17T06:09:48.396Z,21.83
2018-10-17T06:12:23.597Z,21.30
2018-10-17T06:14:51.727Z,22.03
2018-10-17T06:17:28.264Z,23.37
2018-10-17T06:19:57.048Z,22.40
2018-10-17T06:22:36.376Z,24.53
2018-10-17T06:25:06.276Z,22.67
2018-10-17T06:33:14.225Z,24.53
2018-10-17T06:38:29.008Z,22.27
2018-10-17T06:40:57.652Z,24.73
2018-10-17T06:43:25.780Z,23.37
2018-10-17T06:45:55.421Z,24.40
2018-10-17T06:48:23.124Z,22.17
2018-10-17T06:50:50.849Z,23.20
2018-10-17T06:53:18.687Z,25.47
2018-10-17T06:55:46.474Z,24.30
2018-10-17T06:58:14.444Z,23.57
2018-10-17T07:00:42.300Z,23.90
2018-10-17T07:03:10.512Z,24.20
2018-10-17T07:05:38.513Z,24.60
2018-10-17T07:08:06.364Z,23.57
2018-10-17T07:10:34.303Z,23.03
2018-10-17T07:13:03.013Z,23.60
2018-10-17T07:15:32.684Z,24.07
2018-10-17T07:18:03.564Z,22.03
2018-10-17T07:20:37.260Z,23.43
2018-10-17T07:23:05.295Z,22.97
2018-10-17T07:25:34.068Z,23.53
2018-10-17T07:28:03.117Z,22.73
2018-10-17T07:30:32.280Z,23.67
2018-10-17T07:33:01.933Z,22.00
2018-10-17T07:35:29.978Z,21.93
2018-10-17T07:37:58.435Z,22.80
2018-10-17T07:40:26.427Z,22.50
2018-10-17T07:42:54.394Z,22.50
2018-10-17T07:45:22.307Z,21.43
2018-10-17T07:47:51.508Z,19.13
2018-10-17T07:50:19.491Z,22.40
2018-10-17T07:52:55.161Z,20.03
2018-10-17T07:55:23.239Z,20.33
2018-10-17T07:57:51.224Z,21.00
2018-10-17T08:00:19.466Z,21.43
2018-10-17T08:02:47.596Z,21.50
2018-10-17T08:05:17.072Z,21.60
2018-10-17T08:07:49.523Z,21.90
2018-10-17T08:10:25.495Z,20.40
2018-10-17T08:12:53.977Z,20.73
2018-10-17T08:15:22.665Z,21.40
2018-10-17T08:17:51.390Z,20.83
2018-10-17T08:20:19.889Z,21.57
2018-10-17T08:22:47.812Z,21.60
2018-10-17T08:25:16.552Z,21.27
2018-10-17T08:27:46.856Z,20.43
2018-10-17T08:30:14.736Z,19.20
2018-10-17T08:32:42.395Z,20.40
2018-10-17T08:35:10.301Z,20.70
2018-10-17T08:37:39.101Z,21.10
2018-10-17T08:40:06.691Z,20.00
2018-10-17T08:42:34.815Z,19.20
2018-10-17T08:45:04.165Z,18.40
2018-10-17T08:47:32.258Z,19.10
2018-10-17T08:50:01.309Z,18.17
2018-10-17T08:52:29.168Z,19.40
2018-10-17T08:54:58.416Z,20.73
2018-10-17T08:57:26.361Z,20.73
2018-10-17T08:59:58.945Z,20.10
2018-10-17T09:02:29.072Z,19.53
2018-10-17T09:04:57.338Z,20.50
2018-10-17T09:07:27.112Z,19.53
2018-10-17T09:09:55.344Z,20.10
2018-10-17T09:12:23.056Z,22.20
2018-10-17T09:14:51.675Z,20.60
2018-10-17T09:17:19.454Z,19.80
2018-10-17T09:19:48.039Z,19.63
2018-10-17T09:22:23.658Z,21.20
2018-10-17T09:24:52.147Z,21.00
2018-10-17T09:27:25.013Z,22.30
2018-10-17T09:32:32.765Z,20.43
2018-10-17T09:35:01.115Z,21.57
2018-10-17T09:37:30.123Z,19.67
2018-10-17T09:39:57.805Z,19.77
2018-10-17T09:42:26.102Z,19.30
2018-10-17T09:47:35.947Z,20.30
2018-10-17T09:50:11.426Z,20.30
2018-10-17T09:52:39.646Z,20.73
2018-10-17T09:55:16.888Z,18.83
2018-10-17T09:57:45.326Z,21.40
2018-10-17T10:00:19.018Z,20.60
2018-10-17T10:02:47.863Z,20.80
2018-10-17T10:05:15.601Z,19.77
2018-10-17T10:07:43.667Z,19.07
2018-10-17T10:10:11.491Z,19.10
2018-10-17T10:12:39.494Z,18.90
2018-10-17T10:15:07.281Z,18.47
2018-10-17T10:17:35.494Z,17.20
2018-10-17T10:20:03.555Z,18.20
2018-10-17T10:22:31.661Z,18.50
2018-10-17T10:25:00.812Z,17.70
2018-10-17T10:27:28.769Z,16.70
2018-10-17T10:29:57.674Z,18.17
2018-10-17T10:32:25.637Z,18.67
2018-10-17T10:34:56.875Z,19.37
2018-10-17T10:37:25.420Z,17.70
2018-10-17T10:39:53.602Z,18.30
2018-10-17T10:42:32.372Z,15.50
2018-10-17T10:45:11.002Z,16.77
2018-10-17T10:47:38.663Z,16.63
2018-10-17T10:50:07.662Z,15.87
2018-10-17T10:52:41.688Z,15.60
2018-10-17T10:55:16.426Z,17.33
2018-10-17T10:57:44.158Z,16.97
2018-10-17T11:00:12.226Z,16.83
2018-10-17T11:02:40.344Z,17.97
2018-10-17T11:05:08.674Z,16.03
2018-10-17T11:07:43.286Z,16.40
2018-10-17T11:10:20.009Z,16.40
2018-10-17T11:12:48.054Z,17.20
2018-10-17T11:15:16.887Z,15.90
2018-10-17T11:17:44.840Z,15.60
2018-10-17T11:20:12.719Z,17.10
2018-10-17T11:22:41.906Z,16.87
2018-10-17T11:25:09.987Z,15.83
2018-10-17T11:27:37.977Z,14.83
2018-10-17T11:30:09.640Z,14.33
2018-10-17T11:32:38.230Z,15.57
2018-10-17T11:35:08.188Z,15.50
2018-10-17T11:37:36.250Z,15.53
2018-10-17T11:40:06.938Z,15.97
2018-10-17T11:42:35.248Z,15.17
2018-10-17T11:45:03.226Z,14.00
2018-10-17T11:47:31.286Z,15.13
2018-10-17T11:49:58.933Z,14.60
2018-10-17T11:52:27.289Z,13.07
2018-10-17T11:54:55.124Z,14.10
2018-10-17T11:57:23.359Z,12.57
2018-10-17T11:59:51.536Z,13.43
2018-10-17T12:02:21.120Z,13.40
2018-10-17T12:04:49.276Z,13.87
2018-10-17T12:07:17.634Z,12.37
2018-10-17T12:09:49.981Z,12.10
2018-10-17T12:12:18.069Z,13.63
2018-10-17T12:14:48.464Z,13.30
2018-10-17T12:17:18.144Z,14.37
2018-10-17T12:19:46.320Z,12.40
2018-10-17T12:22:14.463Z,11.10
2018-10-17T12:24:43.720Z,10.97
2018-10-17T12:27:11.643Z,11.27
2018-10-17T12:29:39.768Z,9.63
2018-10-17T12:32:07.894Z,9.97
2018-10-17T12:34:43.342Z,10.90
2018-10-17T12:37:11.949Z,11.40
2018-10-17T12:39:40.194Z,10.27
2018-10-17T12:42:13.911Z,10.13
2018-10-17T12:44:55.412Z,10.60
2018-10-17T12:47:23.734Z,10.40
2018-10-17T12:49:52.578Z,10.37
2018-10-17T12:52:31.780Z,9.90
2018-10-17T12:55:07.329Z,10.17
2018-10-17T12:57:35.378Z,10.27
2018-10-17T13:00:03.681Z,9.80
2018-10-17T13:02:31.603Z,9.87
2018-10-17T13:04:59.371Z,10.63
2018-10-17T13:07:27.720Z,10.40
2018-10-17T13:09:55.591Z,9.37
2018-10-17T13:12:23.464Z,9.10
2018-10-17T13:14:52.331Z,9.70
2018-10-17T13:17:20.598Z,9.50
2018-10-17T13:19:48.391Z,8.70
2018-10-17T13:22:16.558Z,10.73
2018-10-17T13:24:44.344Z,9.70
2018-10-17T13:27:12.302Z,9.20
2018-10-17T13:29:40.239Z,9.30
2018-10-17T13:32:07.969Z,9.97
2018-10-17T13:34:36.068Z,13.07
2018-10-17T13:37:09.183Z,9.60
2018-10-17T13:42:34.748Z,9.27
2018-10-17T13:45:02.616Z,9.73
2018-10-17T13:47:31.103Z,8.87
2018-10-17T13:49:58.839Z,9.40
2018-10-17T13:52:26.994Z,9.33
2018-10-17T13:54:55.272Z,9.13
2018-10-17T13:57:28.986Z,10.30
2018-10-17T13:59:57.349Z,10.03
2018-10-17T14:02:25.324Z,9.57
2018-10-17T14:04:53.734Z,9.90
2018-10-17T14:07:22.021Z,9.30
2018-10-17T14:09:49.756Z,8.80
2018-10-17T14:12:18.361Z,9.00
2018-10-17T14:14:46.666Z,8.70
2018-10-17T14:17:14.507Z,9.70
2018-10-17T14:19:42.528Z,10.77
2018-10-17T14:22:29.122Z,8.90
2018-10-17T14:24:56.986Z,9.30
2018-10-17T14:27:26.394Z,12.00
2018-10-17T14:29:54.541Z,8.97
2018-10-17T14:32:23.752Z,10.23
2018-10-17T14:34:51.954Z,9.30
2018-10-17T14:37:19.881Z,9.27
2018-10-17T14:39:47.700Z,9.30
2018-10-17T14:42:15.692Z,9.73
2018-10-17T14:44:43.639Z,9.67
2018-10-17T14:47:12.752Z,8.93
2018-10-17T14:49:40.548Z,8.70
2018-10-17T14:55:04.475Z,8.97
2018-10-17T14:57:32.335Z,10.10
2018-10-17T15:00:09.158Z,9.00
2018-10-17T15:02:37.347Z,8.30
2018-10-17T15:05:05.532Z,8.60
2018-10-17T15:07:33.215Z,8.70
2018-10-17T15:10:01.038Z,8.80
2018-10-17T15:12:28.855Z,8.67
2018-10-17T15:14:56.721Z,8.27
2018-10-17T15:17:24.607Z,8.67
2018-10-17T15:19:52.553Z,9.13
2018-10-17T15:22:20.370Z,7.57
2018-10-17T15:24:52.650Z,8.63
2018-10-17T15:27:21.121Z,6.77
2018-10-17T15:29:48.997Z,7.53
2018-10-17T15:32:16.831Z,7.17
2018-10-17T15:34:45.014Z,7.60
2018-10-17T15:37:12.759Z,8.03
2018-10-17T15:39:40.564Z,7.87
2018-10-17T15:42:08.318Z,7.90
2018-10-17T15:44:36.101Z,8.27
2018-10-17T15:47:04.057Z,8.73
2018-10-17T15:49:33.293Z,8.43
2018-10-17T15:52:02.401Z,9.20
2018-10-17T15:54:30.219Z,9.60
2018-10-17T15:56:58.683Z,8.30
2018-10-17T15:59:32.563Z,8.20
2018-10-17T16:02:00.598Z,9.13
2018-10-17T16:04:29.836Z,7.97
2018-10-17T16:06:59.878Z,8.87
2018-10-17T16:09:28.194Z,8.10
2018-10-17T16:11:57.307Z,7.43
2018-10-17T16:14:25.184Z,7.30
2018-10-17T16:16:55.358Z,9.67
2018-10-17T16:19:29.354Z,8.67
2018-10-17T16:21:58.099Z,8.30
2018-10-17T16:24:26.683Z,8.83
2018-10-17T16:26:54.710Z,8.17
2018-10-17T16:29:22.701Z,8.63
2018-10-17T16:31:50.756Z,9.90
2018-10-17T16:34:20.179Z,9.30
2018-10-17T16:36:49.271Z,10.10
2018-10-17T16:39:16.997Z,8.57
2018-10-17T16:41:44.896Z,9.27
2018-10-17T16:44:12.986Z,9.87
2018-10-17T16:46:40.877Z,8.50
2018-10-17T16:49:08.647Z,8.43
2018-10-17T16:51:37.444Z,10.53
2018-10-17T16:54:05.351Z,9.43
2018-10-17T16:56:46.057Z,9.43
2018-10-17T16:59:14.205Z,10.10
2018-10-17T17:01:45.402Z,9.70
2018-10-17T17:04:20.388Z,9.33
2018-10-17T17:06:48.407Z,9.67
2018-10-17T17:09:16.640Z,8.53
2018-10-17T17:11:45.316Z,9.57
2018-10-17T17:14:14.170Z,9.57
2018-10-17T17:16:46.013Z,9.57
2018-10-17T17:19:20.380Z,9.47
2018-10-17T17:21:49.585Z,9.87
2018-10-17T17:24:22.378Z,9.97
2018-10-17T17:26:51.220Z,9.90
2018-10-17T17:29:19.425Z,10.90
2018-10-17T17:31:49.583Z,9.97
2018-10-17T17:34:18.913Z,10.23
2018-10-17T17:36:48.072Z,11.00
2018-10-17T17:39:16.303Z,10.63
2018-10-17T17:41:44.680Z,9.97
2018-10-17T17:44:29.567Z,10.23
2018-10-17T17:46:58.400Z,11.13
2018-10-17T17:49:29.341Z,10.10
2018-10-17T17:51:58.364Z,10.60
2018-10-17T17:54:26.621Z,10.57
2018-10-17T17:56:57.292Z,11.40
2018-10-17T17:59:28.241Z,10.30
2018-10-17T18:02:02.219Z,11.60
2018-10-17T18:04:34.123Z,10.60
2018-10-17T18:09:41.516Z,10.33
2018-10-17T18:12:11.696Z,10.90
2018-10-17T18:14:39.982Z,11.57
2018-10-17T18:17:14.129Z,11.23
2018-10-17T18:19:47.265Z,11.60
2018-10-17T18:22:15.078Z,12.07
2018-10-17T18:24:42.996Z,12.27
2018-10-17T18:27:14.605Z,12.20
2018-10-17T18:29:42.544Z,12.30
2018-10-17T18:32:10.409Z,11.20
2018-10-17T18:34:38.161Z,12.90
2018-10-17T18:37:06.275Z,12.37
2018-10-17T18:39:37.887Z,12.60
2018-10-17T18:42:06.178Z,13.37
2018-10-17T18:44:39.612Z,13.03
2018-10-17T18:47:13.084Z,13.67
2018-10-17T18:49:41.073Z,13.70
2018-10-17T18:52:15.942Z,13.33
2018-10-17T18:54:44.429Z,13.50
2018-10-17T18:57:12.482Z,14.47
2018-10-17T18:59:41.619Z,15.70
2018-10-17T19:04:46.754Z,22.63
2018-10-17T19:07:20.248Z,18.60
2018-10-17T19:09:49.901Z,18.37
2018-10-17T19:12:24.122Z,17.03
2018-10-17T19:14:58.802Z,15.30
2018-10-17T19:22:53.667Z,14.33
2018-10-17T19:25:23.469Z,14.10
2018-10-17T19:27:53.092Z,19.63
2018-10-17T19:30:34.763Z,13.47
2018-10-17T19:33:09.496Z,13.63
2018-10-17T19:35:46.464Z,13.70
2018-10-17T19:38:14.399Z,13.50
2018-10-17T19:40:42.346Z,12.60
2018-10-17T19:43:10.313Z,15.77
2018-10-17T19:45:42.495Z,15.80
2018-10-17T19:51:10.263Z,12.67
2018-10-17T19:57:01.658Z,14.33
2018-10-17T19:59:29.635Z,13.00
2018-10-17T20:01:58.681Z,14.23
2018-10-17T20:04:45.497Z,13.40
2018-10-17T20:07:13.425Z,12.53
2018-10-17T20:09:41.454Z,12.43
2018-10-17T20:12:10.778Z,14.00
2018-10-17T20:14:44.393Z,13.50
2018-10-17T20:17:14.446Z,12.43
2018-10-17T20:19:43.031Z,13.27
2018-10-17T20:22:23.617Z,12.90
2018-10-17T20:28:33.399Z,13.30
2018-10-17T20:31:02.702Z,13.20
2018-10-17T20:33:41.197Z,14.40
2018-10-17T20:36:10.624Z,13.50
2018-10-17T20:38:42.257Z,14.37
2018-10-17T20:44:06.912Z,14.57
2018-10-17T20:47:39.065Z,13.70
2018-10-17T20:53:14.742Z,14.67
2018-10-17T20:58:28.152Z,15.20
2018-10-17T21:04:08.598Z,14.80
2018-10-17T21:06:37.321Z,14.00
2018-10-17T21:09:14.169Z,13.93
2018-10-17T21:11:49.003Z,14.53
2018-10-17T21:14:25.614Z,14.10
2018-10-17T21:16:54.264Z,12.93
2018-10-17T21:19:22.802Z,15.00
2018-10-17T21:21:52.628Z,13.90
2018-10-17T21:24:27.211Z,16.00
2018-10-17T21:30:01.881Z,14.40
2018-10-17T21:32:55.005Z,15.90
2018-10-17T21:36:33.821Z,14.37
2018-10-17T21:39:03.804Z,15.77
2018-10-17T21:41:54.716Z,15.90
2018-10-17T21:44:24.058Z,19.17
2018-10-17T21:46:53.174Z,18.10
2018-10-17T21:49:21.136Z,20.13
2018-10-17T21:54:56.405Z,20.70
2018-10-17T22:00:02.702Z,21.70
2018-10-17T22:02:34.059Z,22.00
2018-10-17T22:05:02.074Z,22.13
2018-10-17T22:07:31.071Z,19.93
2018-10-17T22:10:05.605Z,21.00
2018-10-17T22:12:35.617Z,20.13
2018-10-17T22:15:05.942Z,21.07
2018-10-17T22:17:45.232Z,21.07
2018-10-17T22:23:23.008Z,19.70
2018-10-17T22:25:51.370Z,20.23
2018-10-17T22:28:20.892Z,20.40
2018-10-17T22:30:49.769Z,21.83
2018-10-17T22:33:26.350Z,20.57
2018-10-17T22:35:54.304Z,22.50
2018-10-17T22:38:27.097Z,23.47
2018-10-17T22:40:55.680Z,25.97
2018-10-17T22:43:45.978Z,24.80
2018-10-17T22:46:14.104Z,25.50
2018-10-17T22:48:42.947Z,26.77
2018-10-17T22:51:12.800Z,24.73
2018-10-17T22:53:40.882Z,24.33
2018-10-17T22:56:27.337Z,22.30
2018-10-17T23:05:09.816Z,22.50
2018-10-17T23:07:37.646Z,22.10
2018-10-17T23:10:05.580Z,21.57
2018-10-17T23:12:34.548Z,23.20
2018-10-17T23:15:03.557Z,19.63
2018-10-17T23:17:31.518Z,21.47
2018-10-17T23:20:00.591Z,21.17
2018-10-17T23:22:29.886Z,23.77
2018-10-17T23:24:59.076Z,22.43
2018-10-17T23:27:27.003Z,21.60
2018-10-17T23:29:54.810Z,22.27
2018-10-17T23:32:22.664Z,22.13
2018-10-17T23:35:12.311Z,21.70
2018-10-17T23:37:40.356Z,20.73
2018-10-17T23:40:14.000Z,21.33
2018-10-17T23:42:42.496Z,19.90
2018-10-17T23:45:12.747Z,18.97
2018-10-17T23:47:42.089Z,19.20
2018-10-17T23:50:10.082Z,19.37
2018-10-17T23:52:38.946Z,18.63
2018-10-17T23:55:29.046Z,19.57
2018-10-17T23:58:03.306Z,17.80
